Terminal Aerodrome Forecast
Issued by NWS

Home | Current Version | Previous Version | Text Only | Print | Product List | Glossary On
Versions: 1 2 3 4 5 6 7 8 9 10 11 12 13 14 15 16 17 18
000
FTUS41 KBTV 261130 CCA
TAFRUT
TAF COR
KRUT 261130Z 2612/2712 28008KT P6SM SCT030 OVC035
      TEMPO 2612/2614 BKN028
     FM262200 25005KT P6SM SCT040
     FM270200 22003KT P6SM OVC040
      AMD LTD TO CLD VIS AND WIND=

USA.gov is the U.S. government's official web portal to all federal, state and local government web resources and services.